sensor_id;sensor_type;location;lat;lon;timestamp;P1;durP1;ratioP1;P2;durP2;ratioP2
3068;SDS011;1545;51.728;8.796;2022-11-27T00:00:23;37.60;;;19.47;;
3068;SDS011;1545;51.728;8.796;2022-11-27T00:02:49;33.10;;;17.67;;
3068;SDS011;1545;51.728;8.796;2022-11-27T00:05:14;42.07;;;18.57;;
3068;SDS011;1545;51.728;8.796;2022-11-27T00:07:40;35.27;;;19.03;;
3068;SDS011;1545;51.728;8.796;2022-11-27T00:10:06;33.90;;;19.00;;
3068;SDS011;1545;51.728;8.796;2022-11-27T00:12:32;36.87;;;19.73;;
3068;SDS011;1545;51.728;8.796;2022-11-27T00:14:57;33.87;;;19.70;;
3068;SDS011;1545;51.728;8.796;2022-11-27T00:17:23;38.57;;;20.30;;
3068;SDS011;1545;51.728;8.796;2022-11-27T00:19:49;41.60;;;20.30;;
3068;SDS011;1545;51.728;8.796;2022-11-27T00:22:14;35.60;;;20.47;;
3068;SDS011;1545;51.728;8.796;2022-11-27T00:24:41;41.80;;;20.93;;
3068;SDS011;1545;51.728;8.796;2022-11-27T00:27:07;40.43;;;21.77;;
3068;SDS011;1545;51.728;8.796;2022-11-27T00:29:33;38.63;;;21.20;;
3068;SDS011;1545;51.728;8.796;2022-11-27T00:31:58;40.13;;;21.97;;
3068;SDS011;1545;51.728;8.796;2022-11-27T00:34:24;36.00;;;19.87;;
3068;SDS011;1545;51.728;8.796;2022-11-27T00:36:50;37.27;;;20.50;;
3068;SDS011;1545;51.728;8.796;2022-11-27T00:39:16;43.43;;;20.17;;
3068;SDS011;1545;51.728;8.796;2022-11-27T00:41:41;34.40;;;20.33;;
3068;SDS011;1545;51.728;8.796;2022-11-27T00:44:07;35.30;;;19.43;;
3068;SDS011;1545;51.728;8.796;2022-11-27T00:46:33;37.77;;;20.23;;
3068;SDS011;1545;51.728;8.796;2022-11-27T00:49:00;33.67;;;18.83;;
3068;SDS011;1545;51.728;8.796;2022-11-27T00:51:27;32.63;;;19.23;;
3068;SDS011;1545;51.728;8.796;2022-11-27T00:53:53;37.93;;;19.53;;
3068;SDS011;1545;51.728;8.796;2022-11-27T00:56:20;40.73;;;21.83;;
3068;SDS011;1545;51.728;8.796;2022-11-27T00:58:53;37.40;;;19.83;;
3068;SDS011;1545;51.728;8.796;2022-11-27T01:01:23;37.70;;;19.57;;
3068;SDS011;1545;51.728;8.796;2022-11-27T01:03:57;35.60;;;18.70;;
3068;SDS011;1545;51.728;8.796;2022-11-27T01:06:24;37.80;;;19.60;;
3068;SDS011;1545;51.728;8.796;2022-11-27T01:08:51;36.43;;;19.80;;
3068;SDS011;1545;51.728;8.796;2022-11-27T01:11:18;38.77;;;19.70;;
3068;SDS011;1545;51.728;8.796;2022-11-27T01:13:46;49.20;;;20.00;;
3068;SDS011;1545;51.728;8.796;2022-11-27T01:16:14;36.87;;;20.57;;
3068;SDS011;1545;51.728;8.796;2022-11-27T01:18:42;36.93;;;19.60;;
3068;SDS011;1545;51.728;8.796;2022-11-27T01:21:09;39.20;;;19.70;;
3068;SDS011;1545;51.728;8.796;2022-11-27T01:23:35;38.30;;;20.13;;
3068;SDS011;1545;51.728;8.796;2022-11-27T01:26:02;38.23;;;19.93;;
3068;SDS011;1545;51.728;8.796;2022-11-27T01:28:29;40.33;;;20.73;;
3068;SDS011;1545;51.728;8.796;2022-11-27T01:30:56;33.27;;;18.53;;
3068;SDS011;1545;51.728;8.796;2022-11-27T01:33:21;38.73;;;19.83;;
3068;SDS011;1545;51.728;8.796;2022-11-27T01:35:54;45.53;;;19.97;;
3068;SDS011;1545;51.728;8.796;2022-11-27T01:38:21;42.07;;;19.90;;
3068;SDS011;1545;51.728;8.796;2022-11-27T01:40:47;33.83;;;18.97;;
3068;SDS011;1545;51.728;8.796;2022-11-27T01:43:13;44.63;;;21.00;;
3068;SDS011;1545;51.728;8.796;2022-11-27T01:45:39;43.60;;;21.10;;
3068;SDS011;1545;51.728;8.796;2022-11-27T01:48:07;34.40;;;19.70;;
3068;SDS011;1545;51.728;8.796;2022-11-27T01:50:36;43.57;;;20.83;;
3068;SDS011;1545;51.728;8.796;2022-11-27T01:53:05;38.93;;;20.13;;
3068;SDS011;1545;51.728;8.796;2022-11-27T01:55:41;36.90;;;18.70;;
3068;SDS011;1545;51.728;8.796;2022-11-27T01:58:16;41.60;;;21.17;;
3068;SDS011;1545;51.728;8.796;2022-11-27T02:00:45;41.57;;;19.60;;
3068;SDS011;1545;51.728;8.796;2022-11-27T02:03:11;39.60;;;21.40;;
3068;SDS011;1545;51.728;8.796;2022-11-27T02:05:37;41.57;;;20.47;;
3068;SDS011;1545;51.728;8.796;2022-11-27T02:08:04;35.33;;;20.10;;
3068;SDS011;1545;51.728;8.796;2022-11-27T02:18:27;45.13;;;22.13;;
3068;SDS011;1545;51.728;8.796;2022-11-27T02:30:16;50.53;;;25.17;;
3068;SDS011;1545;51.728;8.796;2022-11-27T02:32:54;51.47;;;25.03;;
3068;SDS011;1545;51.728;8.796;2022-11-27T02:40:44;57.57;;;24.37;;
3068;SDS011;1545;51.728;8.796;2022-11-27T02:43:30;50.23;;;25.10;;
3068;SDS011;1545;51.728;8.796;2022-11-27T02:46:00;57.43;;;24.50;;
3068;SDS011;1545;51.728;8.796;2022-11-27T02:48:30;52.80;;;25.93;;
3068;SDS011;1545;51.728;8.796;2022-11-27T02:51:00;55.33;;;26.43;;
3068;SDS011;1545;51.728;8.796;2022-11-27T02:53:31;52.00;;;25.30;;
3068;SDS011;1545;51.728;8.796;2022-11-27T02:56:01;49.00;;;24.83;;
3068;SDS011;1545;51.728;8.796;2022-11-27T02:58:34;54.10;;;26.23;;
3068;SDS011;1545;51.728;8.796;2022-11-27T03:01:01;70.13;;;24.97;;
3068;SDS011;1545;51.728;8.796;2022-11-27T03:03:30;47.33;;;25.17;;
3068;SDS011;1545;51.728;8.796;2022-11-27T03:06:00;56.87;;;26.60;;
3068;SDS011;1545;51.728;8.796;2022-11-27T03:08:37;52.40;;;27.30;;
3068;SDS011;1545;51.728;8.796;2022-11-27T03:11:08;53.73;;;24.87;;
3068;SDS011;1545;51.728;8.796;2022-11-27T03:13:37;53.20;;;26.60;;
3068;SDS011;1545;51.728;8.796;2022-11-27T03:16:23;50.53;;;25.60;;
3068;SDS011;1545;51.728;8.796;2022-11-27T03:19:15;55.07;;;27.10;;
3068;SDS011;1545;51.728;8.796;2022-11-27T03:21:56;51.23;;;25.17;;
3068;SDS011;1545;51.728;8.796;2022-11-27T03:24:24;52.87;;;26.00;;
3068;SDS011;1545;51.728;8.796;2022-11-27T03:26:50;51.33;;;27.07;;
3068;SDS011;1545;51.728;8.796;2022-11-27T03:29:19;52.47;;;25.90;;
3068;SDS011;1545;51.728;8.796;2022-11-27T03:31:49;55.93;;;25.37;;
3068;SDS011;1545;51.728;8.796;2022-11-27T03:34:15;61.53;;;25.57;;
3068;SDS011;1545;51.728;8.796;2022-11-27T03:36:41;50.43;;;26.93;;
3068;SDS011;1545;51.728;8.796;2022-11-27T03:39:07;56.03;;;27.90;;
3068;SDS011;1545;51.728;8.796;2022-11-27T03:44:19;61.77;;;27.67;;
3068;SDS011;1545;51.728;8.796;2022-11-27T03:47:15;58.53;;;28.33;;
3068;SDS011;1545;51.728;8.796;2022-11-27T03:58:08;65.50;;;29.43;;
3068;SDS011;1545;51.728;8.796;2022-11-27T04:00:44;49.07;;;27.70;;
3068;SDS011;1545;51.728;8.796;2022-11-27T04:03:13;59.30;;;27.80;;
3068;SDS011;1545;51.728;8.796;2022-11-27T04:05:45;53.83;;;27.37;;
3068;SDS011;1545;51.728;8.796;2022-11-27T04:08:10;53.90;;;28.30;;
3068;SDS011;1545;51.728;8.796;2022-11-27T04:10:36;50.37;;;27.00;;
3068;SDS011;1545;51.728;8.796;2022-11-27T04:13:01;50.87;;;27.07;;
3068;SDS011;1545;51.728;8.796;2022-11-27T04:15:27;55.20;;;26.80;;
3068;SDS011;1545;51.728;8.796;2022-11-27T04:17:52;53.07;;;26.07;;
3068;SDS011;1545;51.728;8.796;2022-11-27T04:20:18;46.17;;;24.03;;
3068;SDS011;1545;51.728;8.796;2022-11-27T04:22:43;49.93;;;25.67;;
3068;SDS011;1545;51.728;8.796;2022-11-27T04:25:09;45.53;;;25.03;;
3068;SDS011;1545;51.728;8.796;2022-11-27T04:27:34;48.40;;;25.33;;
3068;SDS011;1545;51.728;8.796;2022-11-27T04:30:00;45.17;;;23.73;;
3068;SDS011;1545;51.728;8.796;2022-11-27T04:32:25;44.67;;;24.17;;
3068;SDS011;1545;51.728;8.796;2022-11-27T04:34:51;47.53;;;23.53;;
3068;SDS011;1545;51.728;8.796;2022-11-27T04:37:16;44.27;;;23.47;;
3068;SDS011;1545;51.728;8.796;2022-11-27T04:39:42;49.77;;;23.50;;
3068;SDS011;1545;51.728;8.796;2022-11-27T04:42:07;45.30;;;22.53;;
3068;SDS011;1545;51.728;8.796;2022-11-27T04:44:33;44.93;;;23.20;;
3068;SDS011;1545;51.728;8.796;2022-11-27T04:46:58;47.63;;;23.87;;
3068;SDS011;1545;51.728;8.796;2022-11-27T04:49:24;44.50;;;23.63;;
3068;SDS011;1545;51.728;8.796;2022-11-27T04:51:49;42.83;;;22.87;;
3068;SDS011;1545;51.728;8.796;2022-11-27T04:54:15;56.07;;;23.23;;
3068;SDS011;1545;51.728;8.796;2022-11-27T04:56:40;48.43;;;22.60;;
3068;SDS011;1545;51.728;8.796;2022-11-27T04:59:06;37.23;;;21.23;;
3068;SDS011;1545;51.728;8.796;2022-11-27T05:01:31;47.97;;;21.63;;
3068;SDS011;1545;51.728;8.796;2022-11-27T05:03:57;48.10;;;22.03;;
3068;SDS011;1545;51.728;8.796;2022-11-27T05:06:23;47.73;;;21.53;;
3068;SDS011;1545;51.728;8.796;2022-11-27T05:08:48;40.37;;;21.30;;
3068;SDS011;1545;51.728;8.796;2022-11-27T05:11:14;37.60;;;19.83;;
3068;SDS011;1545;51.728;8.796;2022-11-27T05:13:41;41.17;;;20.60;;
3068;SDS011;1545;51.728;8.796;2022-11-27T05:16:08;37.87;;;21.00;;
3068;SDS011;1545;51.728;8.796;2022-11-27T05:18:35;36.87;;;20.00;;
3068;SDS011;1545;51.728;8.796;2022-11-27T05:21:03;40.77;;;20.17;;
3068;SDS011;1545;51.728;8.796;2022-11-27T05:23:30;42.73;;;20.57;;
3068;SDS011;1545;51.728;8.796;2022-11-27T05:25:57;35.27;;;19.23;;
3068;SDS011;1545;51.728;8.796;2022-11-27T05:28:23;40.90;;;19.67;;
3068;SDS011;1545;51.728;8.796;2022-11-27T05:30:49;36.63;;;19.40;;
3068;SDS011;1545;51.728;8.796;2022-11-27T05:33:15;35.67;;;18.97;;
3068;SDS011;1545;51.728;8.796;2022-11-27T05:35:42;36.23;;;18.23;;
3068;SDS011;1545;51.728;8.796;2022-11-27T05:38:09;43.57;;;20.27;;
3068;SDS011;1545;51.728;8.796;2022-11-27T05:40:35;35.07;;;19.90;;
3068;SDS011;1545;51.728;8.796;2022-11-27T05:43:00;40.47;;;19.60;;
3068;SDS011;1545;51.728;8.796;2022-11-27T05:45:26;34.37;;;18.90;;
3068;SDS011;1545;51.728;8.796;2022-11-27T05:47:51;39.37;;;20.47;;
3068;SDS011;1545;51.728;8.796;2022-11-27T05:50:17;44.30;;;21.43;;
3068;SDS011;1545;51.728;8.796;2022-11-27T05:52:42;42.03;;;21.00;;
3068;SDS011;1545;51.728;8.796;2022-11-27T05:55:08;42.90;;;19.63;;
3068;SDS011;1545;51.728;8.796;2022-11-27T05:57:33;39.07;;;20.90;;
3068;SDS011;1545;51.728;8.796;2022-11-27T05:59:59;41.83;;;20.03;;
3068;SDS011;1545;51.728;8.796;2022-11-27T06:02:25;35.07;;;19.73;;
3068;SDS011;1545;51.728;8.796;2022-11-27T06:04:50;38.30;;;19.37;;
3068;SDS011;1545;51.728;8.796;2022-11-27T06:07:16;41.37;;;20.60;;
3068;SDS011;1545;51.728;8.796;2022-11-27T06:09:42;36.90;;;19.83;;
3068;SDS011;1545;51.728;8.796;2022-11-27T06:12:08;43.37;;;20.23;;
3068;SDS011;1545;51.728;8.796;2022-11-27T06:14:33;47.53;;;20.80;;
3068;SDS011;1545;51.728;8.796;2022-11-27T06:17:02;42.63;;;20.63;;
3068;SDS011;1545;51.728;8.796;2022-11-27T06:19:28;34.50;;;19.80;;
3068;SDS011;1545;51.728;8.796;2022-11-27T06:21:54;32.97;;;19.53;;
3068;SDS011;1545;51.728;8.796;2022-11-27T06:24:20;39.93;;;19.77;;
3068;SDS011;1545;51.728;8.796;2022-11-27T06:26:45;42.17;;;18.87;;
3068;SDS011;1545;51.728;8.796;2022-11-27T06:29:11;39.17;;;21.03;;
3068;SDS011;1545;51.728;8.796;2022-11-27T06:31:37;36.93;;;19.00;;
3068;SDS011;1545;51.728;8.796;2022-11-27T06:34:03;36.10;;;18.77;;
3068;SDS011;1545;51.728;8.796;2022-11-27T06:36:30;37.90;;;19.60;;
3068;SDS011;1545;51.728;8.796;2022-11-27T06:39:02;34.20;;;19.77;;
3068;SDS011;1545;51.728;8.796;2022-11-27T06:41:29;38.50;;;19.43;;
3068;SDS011;1545;51.728;8.796;2022-11-27T06:43:56;37.27;;;19.90;;
3068;SDS011;1545;51.728;8.796;2022-11-27T06:46:23;40.00;;;19.97;;
3068;SDS011;1545;51.728;8.796;2022-11-27T06:48:50;35.17;;;18.67;;
3068;SDS011;1545;51.728;8.796;2022-11-27T06:51:17;38.10;;;19.03;;
3068;SDS011;1545;51.728;8.796;2022-11-27T06:53:48;35.90;;;19.20;;
3068;SDS011;1545;51.728;8.796;2022-11-27T06:56:15;34.80;;;19.13;;
3068;SDS011;1545;51.728;8.796;2022-11-27T06:58:43;34.27;;;19.17;;
3068;SDS011;1545;51.728;8.796;2022-11-27T07:01:11;34.67;;;18.20;;
3068;SDS011;1545;51.728;8.796;2022-11-27T07:03:38;31.00;;;17.83;;
3068;SDS011;1545;51.728;8.796;2022-11-27T07:06:04;33.77;;;18.70;;
3068;SDS011;1545;51.728;8.796;2022-11-27T07:08:31;37.83;;;18.97;;
3068;SDS011;1545;51.728;8.796;2022-11-27T07:11:06;36.57;;;19.70;;
3068;SDS011;1545;51.728;8.796;2022-11-27T07:13:36;38.37;;;19.97;;
3068;SDS011;1545;51.728;8.796;2022-11-27T07:16:03;38.37;;;19.80;;
3068;SDS011;1545;51.728;8.796;2022-11-27T07:18:33;43.73;;;20.83;;
3068;SDS011;1545;51.728;8.796;2022-11-27T07:21:00;34.63;;;19.83;;
3068;SDS011;1545;51.728;8.796;2022-11-27T07:23:26;35.20;;;20.10;;
3068;SDS011;1545;51.728;8.796;2022-11-27T07:25:51;35.40;;;20.20;;
3068;SDS011;1545;51.728;8.796;2022-11-27T07:28:17;35.33;;;19.87;;
3068;SDS011;1545;51.728;8.796;2022-11-27T07:30:42;35.57;;;20.57;;
3068;SDS011;1545;51.728;8.796;2022-11-27T07:33:08;35.33;;;19.77;;
3068;SDS011;1545;51.728;8.796;2022-11-27T07:35:33;38.43;;;19.90;;
3068;SDS011;1545;51.728;8.796;2022-11-27T07:37:59;36.27;;;19.17;;
3068;SDS011;1545;51.728;8.796;2022-11-27T07:40:25;33.33;;;19.23;;
3068;SDS011;1545;51.728;8.796;2022-11-27T07:42:50;35.70;;;19.27;;
3068;SDS011;1545;51.728;8.796;2022-11-27T07:45:16;32.70;;;18.70;;
3068;SDS011;1545;51.728;8.796;2022-11-27T07:47:41;34.70;;;18.40;;
3068;SDS011;1545;51.728;8.796;2022-11-27T07:50:07;31.40;;;18.07;;
3068;SDS011;1545;51.728;8.796;2022-11-27T07:52:33;37.17;;;18.37;;
3068;SDS011;1545;51.728;8.796;2022-11-27T07:55:00;30.70;;;16.77;;
3068;SDS011;1545;51.728;8.796;2022-11-27T07:57:26;32.27;;;17.70;;
3068;SDS011;1545;51.728;8.796;2022-11-27T07:59:52;26.40;;;16.70;;
3068;SDS011;1545;51.728;8.796;2022-11-27T08:02:18;27.37;;;15.57;;
3068;SDS011;1545;51.728;8.796;2022-11-27T08:04:43;29.73;;;16.20;;
3068;SDS011;1545;51.728;8.796;2022-11-27T08:07:10;29.00;;;16.77;;
3068;SDS011;1545;51.728;8.796;2022-11-27T08:09:36;27.87;;;16.37;;
3068;SDS011;1545;51.728;8.796;2022-11-27T08:12:03;33.83;;;17.03;;
3068;SDS011;1545;51.728;8.796;2022-11-27T08:14:29;30.87;;;16.97;;
3068;SDS011;1545;51.728;8.796;2022-11-27T08:16:55;28.83;;;16.43;;
3068;SDS011;1545;51.728;8.796;2022-11-27T08:19:20;30.00;;;16.40;;
3068;SDS011;1545;51.728;8.796;2022-11-27T08:21:46;30.17;;;16.60;;
3068;SDS011;1545;51.728;8.796;2022-11-27T08:24:11;30.83;;;16.60;;
3068;SDS011;1545;51.728;8.796;2022-11-27T08:26:37;31.67;;;16.50;;
3068;SDS011;1545;51.728;8.796;2022-11-27T08:29:02;31.27;;;16.43;;
3068;SDS011;1545;51.728;8.796;2022-11-27T08:31:30;30.47;;;15.90;;
3068;SDS011;1545;51.728;8.796;2022-11-27T08:33:56;38.60;;;15.53;;
3068;SDS011;1545;51.728;8.796;2022-11-27T08:36:23;27.17;;;15.63;;
3068;SDS011;1545;51.728;8.796;2022-11-27T08:38:50;23.83;;;14.00;;
3068;SDS011;1545;51.728;8.796;2022-11-27T08:41:16;27.67;;;15.43;;
3068;SDS011;1545;51.728;8.796;2022-11-27T08:43:41;28.33;;;15.03;;
3068;SDS011;1545;51.728;8.796;2022-11-27T08:46:07;26.57;;;14.73;;
3068;SDS011;1545;51.728;8.796;2022-11-27T08:48:33;30.27;;;14.53;;
3068;SDS011;1545;51.728;8.796;2022-11-27T08:51:03;27.00;;;13.97;;
3068;SDS011;1545;51.728;8.796;2022-11-27T08:53:33;26.10;;;14.57;;
3068;SDS011;1545;51.728;8.796;2022-11-27T08:58:32;26.63;;;13.13;;
3068;SDS011;1545;51.728;8.796;2022-11-27T09:00:58;28.87;;;13.30;;
3068;SDS011;1545;51.728;8.796;2022-11-27T09:03:23;29.93;;;13.07;;
3068;SDS011;1545;51.728;8.796;2022-11-27T09:05:49;22.33;;;12.60;;
3068;SDS011;1545;51.728;8.796;2022-11-27T09:08:14;28.33;;;12.63;;
3068;SDS011;1545;51.728;8.796;2022-11-27T09:10:44;29.33;;;12.27;;
3068;SDS011;1545;51.728;8.796;2022-11-27T09:13:10;23.73;;;11.10;;
3068;SDS011;1545;51.728;8.796;2022-11-27T09:15:35;24.93;;;10.90;;
3068;SDS011;1545;51.728;8.796;2022-11-27T09:18:01;20.20;;;10.40;;
3068;SDS011;1545;51.728;8.796;2022-11-27T09:20:26;17.03;;;10.30;;
3068;SDS011;1545;51.728;8.796;2022-11-27T09:22:52;18.17;;;9.73;;
3068;SDS011;1545;51.728;8.796;2022-11-27T09:25:18;20.80;;;9.80;;
3068;SDS011;1545;51.728;8.796;2022-11-27T09:27:43;18.87;;;9.20;;
3068;SDS011;1545;51.728;8.796;2022-11-27T09:30:09;19.63;;;8.83;;
3068;SDS011;1545;51.728;8.796;2022-11-27T09:32:35;21.43;;;10.17;;
3068;SDS011;1545;51.728;8.796;2022-11-27T09:35:00;21.70;;;9.73;;
3068;SDS011;1545;51.728;8.796;2022-11-27T09:37:26;19.97;;;9.80;;
3068;SDS011;1545;51.728;8.796;2022-11-27T09:39:51;18.43;;;9.70;;
3068;SDS011;1545;51.728;8.796;2022-11-27T09:42:34;20.03;;;9.17;;
3068;SDS011;1545;51.728;8.796;2022-11-27T09:45:07;17.87;;;9.23;;
3068;SDS011;1545;51.728;8.796;2022-11-27T09:47:40;20.47;;;9.40;;
3068;SDS011;1545;51.728;8.796;2022-11-27T09:50:21;19.13;;;9.50;;
3068;SDS011;1545;51.728;8.796;2022-11-27T09:52:54;19.33;;;8.87;;
3068;SDS011;1545;51.728;8.796;2022-11-27T09:55:29;21.67;;;9.80;;
3068;SDS011;1545;51.728;8.796;2022-11-27T10:01:13;21.43;;;9.10;;
3068;SDS011;1545;51.728;8.796;2022-11-27T10:03:42;18.80;;;9.03;;
3068;SDS011;1545;51.728;8.796;2022-11-27T10:08:47;16.33;;;8.50;;
3068;SDS011;1545;51.728;8.796;2022-11-27T10:11:20;18.97;;;8.40;;
3068;SDS011;1545;51.728;8.796;2022-11-27T10:16:47;16.50;;;8.07;;
3068;SDS011;1545;51.728;8.796;2022-11-27T10:19:38;17.83;;;9.00;;
3068;SDS011;1545;51.728;8.796;2022-11-27T10:27:36;18.00;;;8.30;;
3068;SDS011;1545;51.728;8.796;2022-11-27T10:30:23;13.83;;;6.90;;
3068;SDS011;1545;51.728;8.796;2022-11-27T10:32:51;15.50;;;7.53;;
3068;SDS011;1545;51.728;8.796;2022-11-27T10:35:21;16.73;;;7.27;;
3068;SDS011;1545;51.728;8.796;2022-11-27T10:37:59;12.70;;;6.97;;
3068;SDS011;1545;51.728;8.796;2022-11-27T10:40:39;18.67;;;7.23;;
3068;SDS011;1545;51.728;8.796;2022-11-27T10:43:11;14.53;;;7.30;;
3068;SDS011;1545;51.728;8.796;2022-11-27T10:48:39;14.37;;;7.20;;
3068;SDS011;1545;51.728;8.796;2022-11-27T10:51:18;13.27;;;6.77;;
3068;SDS011;1545;51.728;8.796;2022-11-27T10:53:46;18.43;;;7.10;;
3068;SDS011;1545;51.728;8.796;2022-11-27T10:59:01;11.70;;;6.70;;
3068;SDS011;1545;51.728;8.796;2022-11-27T11:01:44;12.20;;;6.77;;
3068;SDS011;1545;51.728;8.796;2022-11-27T11:04:11;13.70;;;6.73;;
3068;SDS011;1545;51.728;8.796;2022-11-27T11:06:42;13.27;;;6.83;;
3068;SDS011;1545;51.728;8.796;2022-11-27T11:11:51;12.50;;;6.63;;
3068;SDS011;1545;51.728;8.796;2022-11-27T11:14:21;15.80;;;7.03;;
3068;SDS011;1545;51.728;8.796;2022-11-27T11:16:49;17.13;;;7.20;;
3068;SDS011;1545;51.728;8.796;2022-11-27T11:21:55;14.97;;;7.37;;
3068;SDS011;1545;51.728;8.796;2022-11-27T11:24:24;13.00;;;7.13;;
3068;SDS011;1545;51.728;8.796;2022-11-27T11:29:31;14.97;;;7.20;;
3068;SDS011;1545;51.728;8.796;2022-11-27T11:32:07;14.33;;;6.70;;
3068;SDS011;1545;51.728;8.796;2022-11-27T11:34:35;14.33;;;7.13;;
3068;SDS011;1545;51.728;8.796;2022-11-27T11:37:17;13.80;;;7.20;;
3068;SDS011;1545;51.728;8.796;2022-11-27T11:39:56;13.73;;;7.00;;
3068;SDS011;1545;51.728;8.796;2022-11-27T11:42:30;11.67;;;6.53;;
3068;SDS011;1545;51.728;8.796;2022-11-27T11:45:03;16.93;;;6.23;;
3068;SDS011;1545;51.728;8.796;2022-11-27T11:47:29;11.80;;;6.33;;
3068;SDS011;1545;51.728;8.796;2022-11-27T11:49:55;10.00;;;6.03;;
3068;SDS011;1545;51.728;8.796;2022-11-27T11:52:24;12.93;;;6.73;;
3068;SDS011;1545;51.728;8.796;2022-11-27T11:55:17;10.07;;;6.03;;
3068;SDS011;1545;51.728;8.796;2022-11-27T12:00:16;9.83;;;6.23;;
3068;SDS011;1545;51.728;8.796;2022-11-27T12:05:36;10.60;;;6.17;;
3068;SDS011;1545;51.728;8.796;2022-11-27T12:08:23;11.00;;;5.67;;
3068;SDS011;1545;51.728;8.796;2022-11-27T12:13:43;11.93;;;6.37;;
3068;SDS011;1545;51.728;8.796;2022-11-27T12:16:17;13.87;;;6.53;;
3068;SDS011;1545;51.728;8.796;2022-11-27T12:22:02;9.80;;;5.73;;
3068;SDS011;1545;51.728;8.796;2022-11-27T12:32:51;13.10;;;6.03;;
3068;SDS011;1545;51.728;8.796;2022-11-27T12:35:40;14.17;;;6.10;;
3068;SDS011;1545;51.728;8.796;2022-11-27T12:43:55;16.93;;;6.50;;
3068;SDS011;1545;51.728;8.796;2022-11-27T12:46:29;12.50;;;5.93;;
3068;SDS011;1545;51.728;8.796;2022-11-27T12:49:15;12.80;;;6.03;;
3068;SDS011;1545;51.728;8.796;2022-11-27T12:51:45;11.57;;;5.60;;
3068;SDS011;1545;51.728;8.796;2022-11-27T12:54:29;13.77;;;5.43;;
3068;SDS011;1545;51.728;8.796;2022-11-27T12:57:17;10.40;;;5.83;;
3068;SDS011;1545;51.728;8.796;2022-11-27T12:59:52;13.07;;;6.30;;
3068;SDS011;1545;51.728;8.796;2022-11-27T13:03:27;11.50;;;5.77;;
3068;SDS011;1545;51.728;8.796;2022-11-27T13:05:33;11.67;;;6.07;;
3068;SDS011;1545;51.728;8.796;2022-11-27T13:08:15;13.00;;;6.33;;
3068;SDS011;1545;51.728;8.796;2022-11-27T13:10:49;12.07;;;6.17;;
3068;SDS011;1545;51.728;8.796;2022-11-27T13:13:24;11.57;;;6.13;;
3068;SDS011;1545;51.728;8.796;2022-11-27T13:15:59;13.00;;;5.70;;
3068;SDS011;1545;51.728;8.796;2022-11-27T13:21:05;14.33;;;5.37;;
3068;SDS011;1545;51.728;8.796;2022-11-27T13:23:33;12.70;;;5.57;;
3068;SDS011;1545;51.728;8.796;2022-11-27T13:26:03;11.03;;;5.80;;
3068;SDS011;1545;51.728;8.796;2022-11-27T13:31:02;9.13;;;4.87;;
3068;SDS011;1545;51.728;8.796;2022-11-27T13:33:32;12.17;;;5.70;;
3068;SDS011;1545;51.728;8.796;2022-11-27T13:35:59;11.97;;;5.63;;
3068;SDS011;1545;51.728;8.796;2022-11-27T13:38:27;10.73;;;5.83;;
3068;SDS011;1545;51.728;8.796;2022-11-27T13:40:54;10.57;;;5.10;;
3068;SDS011;1545;51.728;8.796;2022-11-27T13:43:24;10.90;;;5.20;;
3068;SDS011;1545;51.728;8.796;2022-11-27T13:48:55;10.73;;;5.90;;
3068;SDS011;1545;51.728;8.796;2022-11-27T13:51:28;10.03;;;5.37;;
3068;SDS011;1545;51.728;8.796;2022-11-27T13:54:15;12.33;;;6.00;;
3068;SDS011;1545;51.728;8.796;2022-11-27T13:56:43;12.00;;;5.87;;
3068;SDS011;1545;51.728;8.796;2022-11-27T13:59:17;12.07;;;5.20;;
3068;SDS011;1545;51.728;8.796;2022-11-27T14:01:57;8.90;;;4.90;;
3068;SDS011;1545;51.728;8.796;2022-11-27T14:04:25;9.87;;;5.27;;
3068;SDS011;1545;51.728;8.796;2022-11-27T14:12:16;11.33;;;5.53;;
3068;SDS011;1545;51.728;8.796;2022-11-27T14:15:05;16.63;;;5.73;;
3068;SDS011;1545;51.728;8.796;2022-11-27T14:20:54;13.80;;;5.57;;
3068;SDS011;1545;51.728;8.796;2022-11-27T14:23:26;8.30;;;4.97;;
3068;SDS011;1545;51.728;8.796;2022-11-27T14:26:03;9.00;;;4.70;;
3068;SDS011;1545;51.728;8.796;2022-11-27T14:28:39;10.10;;;4.83;;
3068;SDS011;1545;51.728;8.796;2022-11-27T14:33:59;12.57;;;5.07;;
3068;SDS011;1545;51.728;8.796;2022-11-27T14:36:32;7.67;;;4.87;;
3068;SDS011;1545;51.728;8.796;2022-11-27T14:39:02;9.60;;;4.87;;
3068;SDS011;1545;51.728;8.796;2022-11-27T14:41:28;10.30;;;5.30;;
3068;SDS011;1545;51.728;8.796;2022-11-27T14:43:58;8.30;;;4.60;;
3068;SDS011;1545;51.728;8.796;2022-11-27T14:46:29;7.40;;;4.63;;
3068;SDS011;1545;51.728;8.796;2022-11-27T14:48:57;12.60;;;4.60;;
3068;SDS011;1545;51.728;8.796;2022-11-27T14:51:24;10.40;;;4.87;;
3068;SDS011;1545;51.728;8.796;2022-11-27T14:53:58;9.93;;;4.70;;
3068;SDS011;1545;51.728;8.796;2022-11-27T14:56:31;9.37;;;4.57;;
3068;SDS011;1545;51.728;8.796;2022-11-27T14:58:59;7.83;;;4.30;;
3068;SDS011;1545;51.728;8.796;2022-11-27T15:01:26;8.63;;;4.30;;
3068;SDS011;1545;51.728;8.796;2022-11-27T15:03:57;11.33;;;4.70;;
3068;SDS011;1545;51.728;8.796;2022-11-27T15:06:24;10.47;;;4.40;;
3068;SDS011;1545;51.728;8.796;2022-11-27T15:08:54;8.10;;;4.20;;
3068;SDS011;1545;51.728;8.796;2022-11-27T15:11:19;6.03;;;4.20;;
3068;SDS011;1545;51.728;8.796;2022-11-27T15:13:53;6.13;;;3.70;;
3068;SDS011;1545;51.728;8.796;2022-11-27T15:16:22;11.10;;;4.00;;
3068;SDS011;1545;51.728;8.796;2022-11-27T15:18:53;8.97;;;4.47;;
3068;SDS011;1545;51.728;8.796;2022-11-27T15:21:36;10.37;;;5.10;;
3068;SDS011;1545;51.728;8.796;2022-11-27T15:24:02;7.93;;;4.67;;
3068;SDS011;1545;51.728;8.796;2022-11-27T15:26:30;9.60;;;5.10;;
3068;SDS011;1545;51.728;8.796;2022-11-27T15:28:58;10.17;;;4.60;;
3068;SDS011;1545;51.728;8.796;2022-11-27T15:31:35;9.60;;;4.70;;
3068;SDS011;1545;51.728;8.796;2022-11-27T15:34:21;10.37;;;4.60;;
3068;SDS011;1545;51.728;8.796;2022-11-27T15:36:48;9.57;;;4.50;;
3068;SDS011;1545;51.728;8.796;2022-11-27T15:39:22;8.87;;;4.80;;
3068;SDS011;1545;51.728;8.796;2022-11-27T15:41:55;9.27;;;4.63;;
3068;SDS011;1545;51.728;8.796;2022-11-27T15:44:23;9.83;;;5.60;;
3068;SDS011;1545;51.728;8.796;2022-11-27T15:46:49;11.90;;;5.27;;
3068;SDS011;1545;51.728;8.796;2022-11-27T15:49:16;11.20;;;5.23;;
3068;SDS011;1545;51.728;8.796;2022-11-27T15:51:43;9.07;;;4.73;;
3068;SDS011;1545;51.728;8.796;2022-11-27T15:54:09;10.97;;;4.77;;
3068;SDS011;1545;51.728;8.796;2022-11-27T15:56:34;10.90;;;5.10;;
3068;SDS011;1545;51.728;8.796;2022-11-27T15:59:00;14.50;;;5.80;;
3068;SDS011;1545;51.728;8.796;2022-11-27T16:01:25;10.83;;;4.70;;
3068;SDS011;1545;51.728;8.796;2022-11-27T16:03:51;9.47;;;5.43;;
3068;SDS011;1545;51.728;8.796;2022-11-27T16:06:16;10.63;;;5.57;;
3068;SDS011;1545;51.728;8.796;2022-11-27T16:08:44;12.57;;;6.07;;
3068;SDS011;1545;51.728;8.796;2022-11-27T16:11:10;10.87;;;5.07;;
3068;SDS011;1545;51.728;8.796;2022-11-27T16:13:38;8.03;;;4.93;;
3068;SDS011;1545;51.728;8.796;2022-11-27T16:16:05;11.27;;;5.57;;
3068;SDS011;1545;51.728;8.796;2022-11-27T16:18:32;10.70;;;5.17;;
3068;SDS011;1545;51.728;8.796;2022-11-27T16:21:02;10.27;;;5.20;;
3068;SDS011;1545;51.728;8.796;2022-11-27T16:23:29;10.63;;;5.13;;
3068;SDS011;1545;51.728;8.796;2022-11-27T16:25:55;10.90;;;5.13;;
3068;SDS011;1545;51.728;8.796;2022-11-27T16:28:20;11.27;;;5.17;;
3068;SDS011;1545;51.728;8.796;2022-11-27T16:30:46;9.73;;;5.20;;
3068;SDS011;1545;51.728;8.796;2022-11-27T16:33:11;11.63;;;5.63;;
3068;SDS011;1545;51.728;8.796;2022-11-27T16:35:37;9.80;;;5.03;;
3068;SDS011;1545;51.728;8.796;2022-11-27T16:38:02;9.80;;;5.00;;
3068;SDS011;1545;51.728;8.796;2022-11-27T16:40:28;9.60;;;5.33;;
3068;SDS011;1545;51.728;8.796;2022-11-27T16:42:54;8.30;;;4.93;;
3068;SDS011;1545;51.728;8.796;2022-11-27T16:45:19;10.70;;;4.80;;
3068;SDS011;1545;51.728;8.796;2022-11-27T16:47:45;8.53;;;4.90;;
3068;SDS011;1545;51.728;8.796;2022-11-27T16:50:10;10.10;;;5.43;;
3068;SDS011;1545;51.728;8.796;2022-11-27T16:52:36;11.17;;;5.27;;
3068;SDS011;1545;51.728;8.796;2022-11-27T16:55:01;9.53;;;4.80;;